Aérodrome :
LOGIN :

S'inscrire | Disclaimer

   EN    FR    IT 

 










Légende :    VFR   VFR Marginal   IFR   IFR Intensif   IFR Très Intensif
Visi : 
Plafond : 
>= 8 km
>= 3000ft
5 à 8 km
1000 à 3000 ft
1500m à 5 km
500 à 1000 ft
800 à 1500m
200 à 500 ft
< 800m
< 200 ft
Symboles :   Orages  Brouillard  Fortes neiges  Fortes précipitations  Vent > 20 kt
SIGMETs :   Divers  Orages  Givrage  Turbulence  Onde Orograph.  Cendres Volcan.







- Altitude de l'aérodrome : 14 ft
- Code IATA : BRE


EDDW - Bremen Neuenland

DERNIER METAR :
  • 231150Z 32017KT 9999 SCT022 BKN036 15/08 Q1023 BECMG 31020G30KT

METARs EXPIRÉS :
  • 231120Z 32015KT 290V350 9999 SCT022 BKN036 16/08 Q1023 BECMG 31020G30KT
  • 231050Z 30011KT 260V330 9999 SCT022 BKN030 15/09 Q1023 BECMG 31020G30KT
  • 231020Z 32015KT 9999 FEW018 BKN026 14/09 Q1023 BECMG 31020G30KT
  • 230950Z 30017KT 9999 FEW028 BKN036 15/08 Q1023 BECMG 31020G30KT
  • 230920Z 30017KT 9999 BKN034 14/08 Q1023 BECMG 30020G30KT
  • 230850Z 31017G30KT 290V350 9999 BKN034 16/07 Q1023 BECMG 32020G30KT

TAF TAF EDDW
Valide du 23 à 12h jusqu'au 24 à 12h UTC


231100Z 2312/2412 30015KT 9999 SCT025
TEMPO 2312/2315 29020G30KT
BECMG 2317/2319 29008KT
BECMG 2319/2322 BKN012
TEMPO 2322/2406 4000 -DZ BKN008
BECMG 2406/2409 BKN015
Pas de NOTAMs connus pour ce terrain.



MET'MAP, la Météo Aéronautique d'un coup d'oeil ! - Copyright ORBIFLY Décembre 2007 - Disclaimer

ORBIFLY MET'MAP TEAM :

Programmation & Développement : Alexandra Zaïnal
Conception & Développement : Baudouin d'Aumeries
Co-Programmation & Développement : Marc-Olivier Méhu
Soutien technique & logistique : Manuel Goepfert

Contact : metmap@orbifly.com




SOURCES & CREDITS :

   NOAA